createdAt,value
2017-10-22T00:00:36.454Z,5.25
2017-10-22T00:01:37.922Z,5.65
2017-10-22T00:02:39.316Z,5.80
2017-10-22T00:03:40.708Z,6.03
2017-10-22T00:04:42.080Z,6.57
2017-10-22T00:05:43.425Z,7.10
2017-10-22T00:06:44.809Z,8.52
2017-10-22T00:07:46.180Z,9.52
2017-10-22T00:08:47.597Z,10.93
2017-10-22T00:09:48.955Z,11.80
2017-10-22T00:10:51.062Z,11.32
2017-10-22T00:11:52.475Z,11.52
2017-10-22T00:12:53.841Z,12.02
2017-10-22T00:13:55.201Z,11.68
2017-10-22T00:14:56.524Z,12.88
2017-10-22T00:15:57.909Z,13.00
2017-10-22T00:17:00.106Z,13.27
2017-10-22T00:18:01.433Z,14.75
2017-10-22T00:19:02.741Z,13.32
2017-10-22T00:20:04.832Z,14.87
2017-10-22T00:21:06.204Z,14.93
2017-10-22T00:22:07.609Z,14.82
2017-10-22T00:23:09.008Z,16.08
2017-10-22T00:24:10.406Z,15.93
2017-10-22T00:25:11.717Z,15.52
2017-10-22T00:26:13.048Z,14.55
2017-10-22T00:27:14.434Z,14.07
2017-10-22T00:28:15.803Z,14.38
2017-10-22T00:29:17.903Z,13.25
2017-10-22T00:30:19.303Z,15.55
2017-10-22T00:31:21.517Z,15.68
2017-10-22T00:32:22.933Z,14.98
2017-10-22T00:33:24.338Z,14.70
2017-10-22T00:34:25.759Z,14.18
2017-10-22T00:35:27.157Z,11.98
2017-10-22T00:36:28.526Z,11.35
2017-10-22T00:37:29.915Z,9.43
2017-10-22T00:38:31.368Z,9.40
2017-10-22T00:39:32.835Z,8.02
2017-10-22T00:40:34.201Z,6.60
2017-10-22T00:41:35.616Z,6.10
2017-10-22T00:42:37.109Z,5.28
2017-10-22T00:43:38.494Z,4.95
2017-10-22T00:44:39.990Z,4.32
2017-10-22T00:45:41.391Z,4.47
2017-10-22T00:46:42.719Z,4.62
2017-10-22T00:47:44.125Z,3.83
2017-10-22T00:48:46.261Z,3.28
2017-10-22T00:49:47.723Z,4.20
2017-10-22T00:50:49.956Z,3.20
2017-10-22T00:51:51.354Z,2.70
2017-10-22T00:52:52.774Z,2.08
2017-10-22T00:53:54.218Z,2.20
2017-10-22T00:54:55.688Z,2.00
2017-10-22T00:55:57.136Z,2.33
2017-10-22T00:56:58.520Z,2.00
2017-10-22T00:58:00.001Z,2.10
2017-10-22T00:59:01.397Z,1.92
2017-10-22T01:00:02.800Z,2.08
2017-10-22T01:01:04.246Z,2.22
2017-10-22T01:02:05.603Z,2.00
2017-10-22T01:03:06.992Z,2.20
2017-10-22T01:04:08.358Z,1.70
2017-10-22T01:05:09.711Z,1.98
2017-10-22T01:06:11.093Z,1.70
2017-10-22T01:07:12.553Z,2.20
2017-10-22T01:08:13.987Z,2.60
2017-10-22T01:09:15.380Z,2.42
2017-10-22T01:10:16.749Z,2.00
2017-10-22T01:11:18.865Z,2.25
2017-10-22T01:12:20.276Z,2.00
2017-10-22T01:13:21.861Z,1.80
2017-10-22T01:14:23.253Z,1.42
2017-10-22T01:15:24.679Z,1.40
2017-10-22T01:16:26.131Z,1.40
2017-10-22T01:17:27.508Z,1.55
2017-10-22T01:18:28.928Z,1.60
2017-10-22T01:19:30.299Z,1.37
2017-10-22T01:20:31.678Z,1.15
2017-10-22T01:21:33.124Z,1.27
2017-10-22T01:22:34.543Z,1.60
2017-10-22T01:23:36.740Z,1.08
2017-10-22T01:24:38.142Z,0.98
2017-10-22T01:25:39.580Z,1.20
2017-10-22T01:26:40.984Z,1.15
2017-10-22T01:27:42.361Z,1.00
2017-10-22T01:28:43.831Z,1.20
2017-10-22T01:29:45.190Z,1.00
2017-10-22T01:30:46.601Z,1.17
2017-10-22T01:31:48.743Z,1.23
2017-10-22T01:32:50.885Z,1.20
2017-10-22T01:33:52.299Z,1.40
2017-10-22T01:34:53.674Z,1.30
2017-10-22T01:35:55.057Z,1.25
2017-10-22T01:36:56.438Z,1.27
2017-10-22T01:37:57.814Z,1.00
2017-10-22T01:38:59.352Z,1.10
2017-10-22T01:40:01.548Z,0.95
2017-10-22T01:41:03.004Z,1.00
2017-10-22T01:42:04.485Z,1.00
2017-10-22T01:43:06.648Z,1.12
2017-10-22T01:44:08.800Z,1.42
2017-10-22T01:45:10.226Z,1.45
2017-10-22T01:46:11.622Z,2.17
2017-10-22T01:47:13.044Z,2.72
2017-10-22T01:48:14.435Z,3.65
2017-10-22T01:49:15.865Z,4.20
2017-10-22T01:50:17.309Z,3.17
2017-10-22T01:51:18.716Z,1.70
2017-10-22T01:52:20.064Z,1.80
2017-10-22T01:53:21.432Z,2.00
2017-10-22T01:54:22.997Z,2.15
2017-10-22T01:55:24.382Z,3.65
2017-10-22T01:56:25.722Z,5.10
2017-10-22T01:57:27.108Z,4.53
2017-10-22T01:58:28.501Z,6.35
2017-10-22T01:59:29.877Z,4.20
2017-10-22T02:00:31.312Z,3.00
2017-10-22T02:01:32.748Z,3.28
2017-10-22T02:02:34.133Z,3.00
2017-10-22T02:03:36.287Z,3.42
2017-10-22T02:04:38.458Z,3.03
2017-10-22T02:05:39.867Z,3.03
2017-10-22T02:06:42.104Z,3.00
2017-10-22T02:07:43.475Z,2.47
2017-10-22T02:08:44.860Z,2.50
2017-10-22T02:09:46.286Z,3.42
2017-10-22T02:10:47.678Z,2.35
2017-10-22T02:11:49.130Z,2.22
2017-10-22T02:12:50.492Z,3.78
2017-10-22T02:13:52.748Z,3.00
2017-10-22T02:14:54.913Z,3.55
2017-10-22T02:15:56.429Z,2.90
2017-10-22T02:16:57.853Z,2.10
2017-10-22T02:17:59.243Z,2.75
2017-10-22T02:19:00.613Z,3.10
2017-10-22T02:20:02.049Z,4.15
2017-10-22T02:21:03.555Z,4.28
2017-10-22T02:22:05.730Z,2.50
2017-10-22T02:23:07.078Z,2.10
2017-10-22T02:24:08.447Z,1.92
2017-10-22T02:25:09.889Z,2.30
2017-10-22T02:26:11.270Z,2.78
2017-10-22T02:27:13.568Z,2.03
2017-10-22T02:28:14.947Z,3.10
2017-10-22T02:29:17.173Z,3.17
2017-10-22T02:30:18.604Z,3.00
2017-10-22T02:31:19.982Z,2.25
2017-10-22T02:32:21.365Z,2.35
2017-10-22T02:33:22.760Z,1.80
2017-10-22T02:34:24.198Z,2.03
2017-10-22T02:35:25.657Z,2.00
2017-10-22T02:36:27.793Z,2.42
2017-10-22T02:37:29.217Z,2.20
2017-10-22T02:38:30.655Z,2.20
2017-10-22T02:39:32.196Z,1.70
2017-10-22T02:40:33.656Z,1.85
2017-10-22T02:41:35.022Z,2.25
2017-10-22T02:42:37.222Z,1.40
2017-10-22T02:43:38.621Z,1.30
2017-10-22T02:44:39.958Z,1.67
2017-10-22T02:45:42.097Z,2.33
2017-10-22T02:46:43.476Z,2.90
2017-10-22T02:47:44.906Z,2.67
2017-10-22T02:48:47.028Z,3.00
2017-10-22T02:49:48.440Z,2.85
2017-10-22T02:51:57.840Z,2.78
2017-10-22T02:52:59.228Z,1.98
2017-10-22T02:54:00.634Z,1.70
2017-10-22T02:55:02.015Z,2.87
2017-10-22T02:56:03.397Z,2.85
2017-10-22T02:57:04.967Z,2.67
2017-10-22T02:58:06.332Z,2.00
2017-10-22T02:59:07.713Z,2.00
2017-10-22T03:00:09.865Z,1.95
2017-10-22T03:01:12.025Z,1.87
2017-10-22T03:02:14.098Z,1.50
2017-10-22T03:03:15.457Z,1.85
2017-10-22T03:04:16.839Z,2.10
2017-10-22T03:05:18.187Z,1.80
2017-10-22T03:06:20.391Z,1.60
2017-10-22T03:07:21.767Z,2.08
2017-10-22T03:08:23.177Z,1.30
2017-10-22T03:09:24.649Z,1.48
2017-10-22T03:10:26.060Z,1.37
2017-10-22T03:11:27.494Z,1.40
2017-10-22T03:12:28.944Z,1.70
2017-10-22T03:13:30.346Z,1.30
2017-10-22T03:14:32.452Z,1.45
2017-10-22T03:15:33.910Z,1.30
2017-10-22T03:16:35.416Z,1.27
2017-10-22T03:17:36.844Z,1.30
2017-10-22T03:18:38.177Z,1.42
2017-10-22T03:19:39.514Z,1.30
2017-10-22T03:20:40.946Z,1.30
2017-10-22T03:21:43.094Z,1.50
2017-10-22T03:22:44.546Z,1.40
2017-10-22T03:23:45.995Z,1.62
2017-10-22T03:24:47.359Z,1.62
2017-10-22T03:25:48.832Z,1.30
2017-10-22T03:26:50.277Z,1.40
2017-10-22T03:27:52.413Z,1.55
2017-10-22T03:28:53.826Z,1.73
2017-10-22T03:29:55.194Z,1.60
2017-10-22T03:30:56.606Z,1.27
2017-10-22T03:31:58.094Z,1.50
2017-10-22T03:32:59.422Z,1.50
2017-10-22T03:34:00.889Z,1.90
2017-10-22T03:35:02.209Z,1.55
2017-10-22T03:36:03.596Z,1.40
2017-10-22T03:37:04.986Z,1.50
2017-10-22T03:38:06.414Z,1.55
2017-10-22T03:39:07.849Z,1.45
2017-10-22T03:40:09.477Z,1.40
2017-10-22T03:41:10.888Z,1.40
2017-10-22T03:42:12.292Z,1.20
2017-10-22T03:43:13.636Z,1.92
2017-10-22T03:44:15.088Z,1.98
2017-10-22T03:45:16.482Z,3.08
2017-10-22T03:46:17.920Z,2.20
2017-10-22T03:47:19.314Z,2.20
2017-10-22T03:48:21.458Z,2.60
2017-10-22T03:49:22.902Z,2.40
2017-10-22T03:50:24.293Z,1.92
2017-10-22T03:51:25.699Z,1.50
2017-10-22T03:52:27.827Z,1.45
2017-10-22T03:53:29.211Z,1.30
2017-10-22T03:54:30.601Z,1.25
2017-10-22T03:55:31.973Z,1.70
2017-10-22T03:56:34.107Z,1.60
2017-10-22T03:57:35.481Z,1.55
2017-10-22T03:58:36.983Z,1.55
2017-10-22T03:59:38.362Z,1.48
2017-10-22T04:00:39.776Z,1.70
2017-10-22T04:01:41.213Z,1.58
2017-10-22T04:02:42.600Z,1.52
2017-10-22T04:03:43.953Z,1.55
2017-10-22T04:04:45.313Z,1.55
2017-10-22T04:05:46.677Z,1.40
2017-10-22T04:06:48.036Z,1.50
2017-10-22T04:07:50.274Z,1.37
2017-10-22T04:08:52.383Z,1.20
2017-10-22T04:09:53.740Z,1.40
2017-10-22T04:10:55.133Z,1.20
2017-10-22T04:11:57.296Z,1.50
2017-10-22T04:12:58.723Z,1.33
2017-10-22T04:14:00.089Z,1.60
2017-10-22T04:15:01.447Z,1.40
2017-10-22T04:16:02.795Z,1.50
2017-10-22T04:17:04.177Z,1.50
2017-10-22T04:18:06.397Z,1.55
2017-10-22T04:19:07.777Z,1.60
2017-10-22T04:20:09.877Z,1.40
2017-10-22T04:21:11.281Z,1.70
2017-10-22T04:22:12.659Z,1.60
2017-10-22T04:23:14.107Z,1.95
2017-10-22T04:24:15.536Z,2.00
2017-10-22T04:25:16.891Z,1.40
2017-10-22T04:26:18.309Z,1.42
2017-10-22T04:27:19.641Z,1.42
2017-10-22T04:28:21.199Z,1.77
2017-10-22T04:29:22.562Z,1.87
2017-10-22T04:30:23.957Z,1.87
2017-10-22T04:31:25.341Z,1.65
2017-10-22T04:32:26.792Z,1.60
2017-10-22T04:33:28.270Z,1.87
2017-10-22T04:34:29.626Z,1.37
2017-10-22T04:35:31.000Z,1.87
2017-10-22T04:36:32.369Z,1.90
2017-10-22T04:37:34.541Z,2.25
2017-10-22T04:38:36.014Z,1.80
2017-10-22T04:39:37.369Z,2.08
2017-10-22T04:40:38.807Z,1.55
2017-10-22T04:41:40.195Z,1.42
2017-10-22T04:42:41.600Z,1.10
2017-10-22T04:43:43.044Z,1.42
2017-10-22T04:44:44.420Z,1.48
2017-10-22T04:45:46.537Z,2.10
2017-10-22T04:46:47.973Z,1.75
2017-10-22T04:47:49.346Z,1.70
2017-10-22T04:48:50.827Z,1.60
2017-10-22T04:49:52.207Z,1.40
2017-10-22T04:50:53.577Z,1.55
2017-10-22T04:51:54.945Z,1.77
2017-10-22T04:52:56.511Z,1.60
2017-10-22T04:53:57.956Z,1.90
2017-10-22T04:54:59.363Z,1.85
2017-10-22T04:56:00.726Z,1.62
2017-10-22T04:57:02.074Z,1.65
2017-10-22T04:58:03.483Z,1.80
2017-10-22T04:59:04.842Z,1.70
2017-10-22T05:00:06.352Z,1.50
2017-10-22T05:01:07.732Z,1.80
2017-10-22T05:02:09.152Z,2.40
2017-10-22T05:03:10.595Z,2.70
2017-10-22T05:04:12.034Z,1.77
2017-10-22T05:05:13.402Z,2.15
2017-10-22T05:06:14.798Z,1.70
2017-10-22T05:07:16.138Z,1.80
2017-10-22T05:08:17.541Z,1.80
2017-10-22T05:09:19.700Z,2.28
2017-10-22T05:10:21.055Z,5.30
2017-10-22T05:11:22.581Z,5.77
2017-10-22T05:12:24.120Z,7.22
2017-10-22T05:13:25.644Z,4.93
2017-10-22T05:14:27.978Z,2.83
2017-10-22T05:15:29.515Z,1.67
2017-10-22T05:16:31.812Z,1.30
2017-10-22T05:17:33.333Z,1.33
2017-10-22T05:18:34.882Z,1.60
2017-10-22T05:19:37.289Z,1.60
2017-10-22T05:20:38.796Z,1.60
2017-10-22T05:21:40.185Z,2.30
2017-10-22T05:22:41.678Z,1.67
2017-10-22T05:23:43.139Z,1.55
2017-10-22T05:24:44.533Z,1.80
2017-10-22T05:25:45.950Z,1.33
2017-10-22T05:26:47.286Z,2.20
2017-10-22T05:27:48.679Z,1.70
2017-10-22T05:28:50.085Z,2.10
2017-10-22T05:29:51.497Z,2.07
2017-10-22T05:30:53.566Z,1.30
2017-10-22T05:31:54.913Z,1.42
2017-10-22T05:32:56.292Z,1.33
2017-10-22T05:33:57.758Z,1.60
2017-10-22T05:34:59.267Z,1.80
2017-10-22T05:36:00.648Z,1.90
2017-10-22T05:37:02.019Z,1.70
2017-10-22T05:38:03.429Z,1.70
2017-10-22T05:39:04.901Z,1.60
2017-10-22T05:40:06.302Z,1.40
2017-10-22T05:41:08.470Z,1.42
2017-10-22T05:43:17.903Z,1.60
2017-10-22T05:44:19.303Z,1.20
2017-10-22T05:45:20.724Z,1.30
2017-10-22T05:46:22.059Z,1.23
2017-10-22T05:47:23.438Z,1.30
2017-10-22T05:48:24.886Z,1.20
2017-10-22T05:49:26.245Z,1.00
2017-10-22T05:50:28.402Z,1.20
2017-10-22T05:51:30.501Z,1.10
2017-10-22T05:52:31.858Z,1.02
2017-10-22T05:53:33.205Z,1.12
2017-10-22T05:54:34.584Z,0.90
2017-10-22T05:55:35.964Z,0.90
2017-10-22T05:56:37.373Z,0.90
2017-10-22T05:57:38.757Z,1.05
2017-10-22T05:58:40.137Z,1.17
2017-10-22T05:59:42.253Z,1.12
2017-10-22T06:00:43.706Z,0.90
2017-10-22T06:01:45.064Z,0.82
2017-10-22T06:02:47.128Z,1.10
2017-10-22T06:03:49.253Z,1.12
2017-10-22T06:04:50.615Z,1.12
2017-10-22T06:05:52.032Z,1.10
2017-10-22T06:06:53.419Z,0.80
2017-10-22T06:07:54.892Z,1.10
2017-10-22T06:08:56.315Z,1.73
2017-10-22T06:09:57.739Z,2.30
2017-10-22T06:10:59.215Z,3.00
2017-10-22T06:12:00.644Z,3.00
2017-10-22T06:13:01.977Z,3.00
2017-10-22T06:14:03.322Z,2.78
2017-10-22T06:15:04.696Z,3.83
2017-10-22T06:16:06.143Z,3.22
2017-10-22T06:17:07.590Z,4.05
2017-10-22T06:18:08.999Z,3.30
2017-10-22T06:19:10.394Z,3.17
2017-10-22T06:20:11.815Z,2.20
2017-10-22T06:21:13.957Z,2.40
2017-10-22T06:22:15.363Z,2.62
2017-10-22T06:23:16.774Z,1.92
2017-10-22T06:24:18.146Z,1.92
2017-10-22T06:25:19.537Z,1.73
2017-10-22T06:26:21.737Z,1.83
2017-10-22T06:27:23.123Z,1.80
2017-10-22T06:28:25.240Z,1.60
2017-10-22T06:29:26.613Z,1.48
2017-10-22T06:30:27.977Z,1.40
2017-10-22T06:31:29.381Z,1.25
2017-10-22T06:32:30.718Z,1.10
2017-10-22T06:33:32.161Z,1.20
2017-10-22T06:34:33.549Z,1.02
2017-10-22T06:35:34.902Z,1.40
2017-10-22T06:36:36.369Z,1.40
2017-10-22T06:37:37.748Z,2.10
2017-10-22T06:38:39.857Z,1.70
2017-10-22T06:39:41.269Z,1.98
2017-10-22T06:40:42.723Z,1.67
2017-10-22T06:41:44.262Z,1.40
2017-10-22T06:42:45.785Z,1.52
2017-10-22T06:43:47.197Z,1.33
2017-10-22T06:44:49.346Z,1.30
2017-10-22T06:45:50.766Z,1.48
2017-10-22T06:46:52.189Z,1.65
2017-10-22T06:47:53.572Z,1.60
2017-10-22T06:48:55.134Z,1.40
2017-10-22T06:49:57.230Z,1.40
2017-10-22T06:50:58.790Z,1.50
2017-10-22T06:52:00.395Z,1.30
2017-10-22T06:53:01.818Z,1.35
2017-10-22T06:54:04.066Z,1.30
2017-10-22T06:55:06.400Z,1.60
2017-10-22T06:56:07.917Z,1.70
2017-10-22T06:57:09.611Z,1.40
2017-10-22T06:58:11.097Z,1.50
2017-10-22T06:59:12.554Z,1.80
2017-10-22T07:00:13.987Z,1.80
2017-10-22T07:01:15.407Z,2.15
2017-10-22T07:02:16.873Z,2.03
2017-10-22T07:03:18.354Z,2.03
2017-10-22T07:04:20.536Z,1.87
2017-10-22T07:05:21.961Z,1.63
2017-10-22T07:06:23.382Z,1.63
2017-10-22T07:07:24.840Z,2.05
2017-10-22T07:08:27.078Z,1.98
2017-10-22T07:09:28.482Z,1.80
2017-10-22T07:10:29.907Z,1.85
2017-10-22T07:11:31.377Z,1.58
2017-10-22T07:12:32.911Z,1.90
2017-10-22T07:13:34.355Z,1.87
2017-10-22T07:14:35.749Z,1.80
2017-10-22T07:15:37.098Z,1.50
2017-10-22T07:16:39.196Z,1.97
2017-10-22T07:17:40.682Z,1.80
2017-10-22T07:18:42.879Z,1.60
2017-10-22T07:19:44.297Z,1.15
2017-10-22T07:20:46.434Z,1.20
2017-10-22T07:21:47.777Z,1.27
2017-10-22T07:22:49.177Z,0.90
2017-10-22T07:23:50.532Z,1.20
2017-10-22T07:24:51.925Z,1.12
2017-10-22T07:25:53.285Z,1.40
2017-10-22T07:26:54.691Z,1.23
2017-10-22T07:27:56.122Z,1.30
2017-10-22T07:28:58.178Z,1.37
2017-10-22T07:29:59.567Z,1.08
2017-10-22T07:31:00.903Z,1.17
2017-10-22T07:32:02.233Z,1.30
2017-10-22T07:33:03.625Z,1.08
2017-10-22T07:34:04.932Z,0.90
2017-10-22T07:35:06.298Z,0.80
2017-10-22T07:36:08.398Z,0.80
2017-10-22T07:37:09.760Z,0.85
2017-10-22T07:38:11.161Z,0.60
2017-10-22T07:39:13.249Z,0.80
2017-10-22T07:40:14.607Z,0.62
2017-10-22T07:41:15.940Z,0.60
2017-10-22T07:42:17.373Z,0.80
2017-10-22T07:43:18.772Z,0.90
2017-10-22T07:44:20.170Z,1.00
2017-10-22T07:45:21.543Z,0.70
2017-10-22T07:46:23.654Z,0.88
2017-10-22T07:47:25.024Z,0.85
2017-10-22T07:48:26.415Z,0.70
2017-10-22T07:49:27.784Z,0.62
2017-10-22T07:50:29.157Z,0.70
2017-10-22T07:51:31.288Z,0.70
2017-10-22T07:52:32.742Z,0.55
2017-10-22T07:53:34.884Z,0.80
2017-10-22T07:54:36.248Z,0.85
2017-10-22T07:55:38.368Z,1.10
2017-10-22T07:56:39.715Z,1.40
2017-10-22T07:57:41.073Z,1.30
2017-10-22T07:58:43.189Z,1.30
2017-10-22T07:59:44.500Z,1.17
2017-10-22T08:00:45.833Z,1.08
2017-10-22T08:01:47.193Z,0.90
2017-10-22T08:02:48.518Z,0.80
2017-10-22T08:03:50.833Z,0.90
2017-10-22T08:04:52.182Z,0.70
2017-10-22T08:05:53.528Z,0.60
2017-10-22T08:06:55.729Z,0.70
2017-10-22T08:07:57.046Z,0.70
2017-10-22T08:08:58.465Z,0.77
2017-10-22T08:10:00.692Z,0.90
2017-10-22T08:11:02.037Z,0.90
2017-10-22T08:12:03.423Z,1.80
2017-10-22T08:13:04.931Z,1.30
2017-10-22T08:14:06.376Z,1.42
2017-10-22T08:15:07.877Z,1.70
2017-10-22T08:16:09.262Z,1.40
2017-10-22T08:17:11.317Z,1.30
2017-10-22T08:18:13.399Z,1.62
2017-10-22T08:19:14.769Z,2.00
2017-10-22T08:20:16.173Z,2.17
2017-10-22T08:21:17.597Z,1.98
2017-10-22T08:22:19.149Z,1.77
2017-10-22T08:23:20.525Z,1.35
2017-10-22T08:24:21.912Z,1.00
2017-10-22T08:25:23.378Z,0.77
2017-10-22T08:26:24.777Z,0.62
2017-10-22T08:27:26.156Z,1.30
2017-10-22T08:28:27.514Z,1.17
2017-10-22T08:29:28.909Z,0.98
2017-10-22T08:30:30.283Z,0.70
2017-10-22T08:31:31.673Z,0.77
2017-10-22T08:32:33.081Z,0.90
2017-10-22T08:33:34.433Z,1.00
2017-10-22T08:34:35.845Z,0.85
2017-10-22T08:35:37.269Z,0.85
2017-10-22T08:36:38.662Z,0.70
2017-10-22T08:37:40.021Z,1.40
2017-10-22T08:38:41.394Z,1.20
2017-10-22T08:39:42.790Z,0.70
2017-10-22T08:40:44.228Z,0.80
2017-10-22T08:41:45.589Z,0.70
2017-10-22T08:42:48.001Z,0.70
2017-10-22T08:43:49.402Z,0.70
2017-10-22T08:44:51.570Z,0.75
2017-10-22T08:45:52.974Z,0.70
2017-10-22T08:46:54.366Z,0.70
2017-10-22T08:47:55.829Z,0.88
2017-10-22T08:48:57.247Z,0.60
2017-10-22T08:49:58.684Z,0.73
2017-10-22T08:51:00.061Z,1.00
2017-10-22T08:52:01.475Z,0.85
2017-10-22T08:53:02.868Z,1.00
2017-10-22T08:54:11.326Z,1.00
2017-10-22T08:55:12.759Z,1.10
2017-10-22T08:56:14.192Z,1.10
2017-10-22T08:57:15.604Z,1.10
2017-10-22T08:58:17.811Z,1.40
2017-10-22T08:59:19.188Z,1.12
2017-10-22T09:00:20.611Z,1.10
2017-10-22T09:01:22.014Z,1.10
2017-10-22T09:02:23.413Z,1.20
2017-10-22T09:03:25.074Z,1.20
2017-10-22T09:04:27.230Z,1.20
2017-10-22T09:05:29.275Z,1.00
2017-10-22T09:06:30.669Z,1.20
2017-10-22T09:07:32.075Z,1.05
2017-10-22T09:08:33.467Z,1.30
2017-10-22T09:09:34.820Z,1.40
2017-10-22T09:10:36.244Z,1.60
2017-10-22T09:11:37.615Z,1.55
2017-10-22T09:12:38.987Z,1.50
2017-10-22T09:13:40.494Z,1.55
2017-10-22T09:14:41.876Z,1.37
2017-10-22T09:15:43.382Z,1.10
2017-10-22T09:16:44.893Z,1.15
2017-10-22T09:17:46.287Z,1.05
2017-10-22T09:18:47.664Z,1.17
2017-10-22T09:19:49.001Z,1.00
2017-10-22T09:20:50.437Z,1.00
2017-10-22T09:21:51.834Z,0.80
2017-10-22T09:22:53.208Z,1.00
2017-10-22T09:23:54.734Z,1.00
2017-10-22T09:24:56.154Z,1.12
2017-10-22T09:25:57.635Z,1.35
2017-10-22T09:26:59.040Z,2.60
2017-10-22T09:28:00.426Z,2.80
2017-10-22T09:29:01.796Z,2.45
2017-10-22T09:30:03.154Z,1.80
2017-10-22T09:31:04.607Z,1.12
2017-10-22T09:32:06.028Z,1.02
2017-10-22T09:33:08.213Z,1.30
2017-10-22T09:34:09.623Z,1.60
2017-10-22T09:35:11.772Z,1.17
2017-10-22T09:36:13.167Z,1.30
2017-10-22T09:37:14.585Z,1.17
2017-10-22T09:38:15.989Z,1.08
2017-10-22T09:39:17.403Z,1.33
2017-10-22T09:40:18.748Z,1.00
2017-10-22T09:41:20.169Z,1.10
2017-10-22T09:42:21.547Z,1.17
2017-10-22T09:43:22.985Z,1.10
2017-10-22T09:44:24.336Z,1.10
2017-10-22T09:45:25.714Z,0.95
2017-10-22T09:46:27.473Z,1.27
2017-10-22T09:47:28.869Z,1.15
2017-10-22T09:48:30.261Z,1.08
2017-10-22T09:49:31.624Z,1.00
2017-10-22T09:50:33.027Z,1.40
2017-10-22T09:51:34.429Z,1.62
2017-10-22T09:52:36.595Z,1.85
2017-10-22T09:53:38.746Z,1.50
2017-10-22T09:54:40.904Z,1.20
2017-10-22T09:55:43.137Z,1.55
2017-10-22T09:56:44.589Z,1.83
2017-10-22T09:57:46.006Z,2.30
2017-10-22T09:58:47.409Z,1.60
2017-10-22T09:59:48.889Z,2.05
2017-10-22T10:00:50.408Z,2.25
2017-10-22T10:01:51.949Z,3.70
2017-10-22T10:02:53.374Z,3.00
2017-10-22T10:03:54.747Z,3.42
2017-10-22T10:04:56.177Z,2.70
2017-10-22T10:05:57.553Z,2.30
2017-10-22T10:06:59.776Z,2.33
2017-10-22T10:08:01.148Z,1.80
2017-10-22T10:09:02.577Z,1.70
2017-10-22T10:10:04.004Z,1.17
2017-10-22T10:11:05.474Z,1.70
2017-10-22T10:12:06.914Z,2.83
2017-10-22T10:13:08.407Z,4.82
2017-10-22T10:14:09.823Z,5.07
2017-10-22T10:15:11.206Z,3.80
2017-10-22T10:16:12.591Z,2.55
2017-10-22T10:17:14.780Z,2.55
2017-10-22T10:18:16.213Z,2.70
2017-10-22T10:19:17.593Z,3.83
2017-10-22T10:20:18.982Z,3.10
2017-10-22T10:21:20.413Z,3.05
2017-10-22T10:22:22.628Z,2.95
2017-10-22T10:23:24.056Z,3.70
2017-10-22T10:24:25.742Z,3.37
2017-10-22T10:25:27.206Z,3.05
2017-10-22T10:26:29.429Z,1.70
2017-10-22T10:27:30.996Z,1.30
2017-10-22T10:28:33.189Z,1.85
2017-10-22T10:29:34.689Z,2.33
2017-10-22T10:30:36.188Z,1.60
2017-10-22T10:31:37.595Z,1.33
2017-10-22T10:32:39.877Z,1.25
2017-10-22T10:33:41.269Z,1.23
2017-10-22T10:34:43.434Z,1.08
2017-10-22T10:35:45.649Z,1.55
2017-10-22T10:36:47.114Z,1.48
2017-10-22T10:37:48.578Z,2.15
2017-10-22T10:38:50.733Z,1.95
2017-10-22T10:39:52.898Z,1.60
2017-10-22T10:40:54.350Z,1.55
2017-10-22T10:41:56.506Z,1.50
2017-10-22T10:42:58.620Z,1.58
2017-10-22T10:44:00.019Z,1.58
2017-10-22T10:45:01.392Z,1.15
2017-10-22T10:46:02.789Z,1.70
2017-10-22T10:47:04.745Z,1.50
2017-10-22T10:48:06.265Z,1.25
2017-10-22T10:49:08.462Z,1.30
2017-10-22T10:50:10.299Z,1.15
2017-10-22T10:51:11.936Z,1.40
2017-10-22T10:52:14.209Z,1.98
2017-10-22T10:53:17.055Z,2.00
2017-10-22T10:54:18.471Z,1.75
2017-10-22T10:55:19.890Z,1.60
2017-10-22T10:56:21.335Z,1.77
2017-10-22T10:57:22.934Z,2.12
2017-10-22T10:58:24.575Z,1.52
2017-10-22T10:59:26.411Z,1.50
2017-10-22T11:00:27.990Z,2.37
2017-10-22T11:01:29.749Z,1.92
2017-10-22T11:02:31.145Z,2.30
2017-10-22T11:03:33.356Z,2.17
2017-10-22T11:04:34.868Z,1.85
2017-10-22T11:05:36.301Z,2.00
2017-10-22T11:06:37.769Z,2.80
2017-10-22T11:07:39.148Z,2.83
2017-10-22T11:08:40.600Z,6.75
2017-10-22T11:09:42.025Z,6.03
2017-10-22T11:10:43.453Z,6.12
2017-10-22T11:11:44.871Z,4.90
2017-10-22T11:12:46.350Z,6.18
2017-10-22T11:13:47.798Z,7.30
2017-10-22T11:14:49.214Z,5.82
2017-10-22T11:15:50.566Z,5.70
2017-10-22T11:16:52.002Z,5.47
2017-10-22T11:17:53.420Z,4.10
2017-10-22T11:18:54.840Z,3.15
2017-10-22T11:19:56.209Z,2.15
2017-10-22T11:20:57.613Z,1.27
2017-10-22T11:21:59.053Z,1.20
2017-10-22T11:23:00.459Z,1.20
2017-10-22T11:24:01.977Z,2.12
2017-10-22T11:25:03.324Z,2.03
2017-10-22T11:26:04.811Z,1.70
2017-10-22T11:27:06.981Z,1.70
2017-10-22T11:28:08.329Z,2.10
2017-10-22T11:29:09.729Z,1.62
2017-10-22T11:30:11.915Z,4.12
2017-10-22T11:31:13.285Z,3.12
2017-10-22T11:32:14.664Z,2.90
2017-10-22T11:33:16.067Z,3.17
2017-10-22T11:34:17.474Z,2.90
2017-10-22T11:35:18.848Z,2.58
2017-10-22T11:36:20.244Z,2.50
2017-10-22T11:37:22.472Z,2.80
2017-10-22T11:38:23.824Z,2.50
2017-10-22T11:39:25.281Z,2.72
2017-10-22T11:40:26.621Z,3.50
2017-10-22T11:41:29.399Z,4.45
2017-10-22T11:42:30.834Z,3.10
2017-10-22T11:43:32.919Z,2.53
2017-10-22T11:44:34.343Z,2.92
2017-10-22T11:45:35.689Z,3.10
2017-10-22T11:46:37.076Z,2.60
2017-10-22T11:47:38.460Z,2.00
2017-10-22T11:48:39.829Z,2.35
2017-10-22T11:49:41.200Z,2.50
2017-10-22T11:50:42.535Z,3.12
2017-10-22T11:51:43.914Z,3.83
2017-10-22T11:52:45.268Z,4.80
2017-10-22T11:53:46.580Z,3.60
2017-10-22T11:54:47.979Z,3.60
2017-10-22T11:55:49.345Z,2.97
2017-10-22T11:56:51.408Z,2.92
2017-10-22T11:57:53.470Z,3.92
2017-10-22T11:58:55.643Z,2.67
2017-10-22T11:59:57.008Z,4.65
2017-10-22T12:00:58.376Z,3.70
2017-10-22T12:01:59.740Z,3.90
2017-10-22T12:03:01.823Z,4.80
2017-10-22T12:04:03.129Z,4.12
2017-10-22T12:05:04.507Z,3.90
2017-10-22T12:06:05.893Z,7.53
2017-10-22T12:07:07.325Z,4.55
2017-10-22T12:08:08.656Z,3.22
2017-10-22T12:09:09.996Z,3.78
2017-10-22T12:10:11.487Z,3.42
2017-10-22T12:11:12.890Z,2.75
2017-10-22T12:12:14.256Z,1.60
2017-10-22T12:13:15.789Z,2.25
2017-10-22T12:14:18.630Z,2.92
2017-10-22T12:15:20.169Z,2.65
2017-10-22T12:16:21.569Z,2.15
2017-10-22T12:17:23.010Z,2.00
2017-10-22T12:18:24.447Z,2.00
2017-10-22T12:19:26.585Z,1.83
2017-10-22T12:20:28.180Z,1.30
2017-10-22T12:21:29.589Z,1.23
2017-10-22T12:22:31.804Z,1.00
2017-10-22T12:23:33.198Z,1.17
2017-10-22T12:24:34.703Z,1.30
2017-10-22T12:25:36.129Z,1.00
2017-10-22T12:26:37.557Z,1.20
2017-10-22T12:27:38.966Z,1.20
2017-10-22T12:28:40.432Z,1.00
2017-10-22T12:29:41.804Z,1.02
2017-10-22T12:30:43.248Z,1.10
2017-10-22T12:31:44.636Z,1.60
2017-10-22T12:32:46.046Z,1.52
2017-10-22T12:33:48.234Z,1.67
2017-10-22T12:34:49.587Z,1.42
2017-10-22T12:35:51.054Z,1.10
2017-10-22T12:36:52.468Z,1.10
2017-10-22T12:37:53.841Z,1.10
2017-10-22T12:38:55.284Z,1.42
2017-10-22T12:39:56.652Z,1.30
2017-10-22T12:40:58.812Z,1.55
2017-10-22T12:42:00.942Z,1.35
2017-10-22T12:43:03.058Z,1.12
2017-10-22T12:44:04.436Z,1.30
2017-10-22T12:45:05.842Z,1.45
2017-10-22T12:46:07.256Z,2.08
2017-10-22T12:47:09.453Z,2.22
2017-10-22T12:48:10.900Z,1.35
2017-10-22T12:49:12.294Z,2.22
2017-10-22T12:50:13.668Z,2.15
2017-10-22T12:51:15.077Z,2.00
2017-10-22T12:52:16.406Z,1.77
2017-10-22T12:53:18.460Z,2.03
2017-10-22T12:56:13.375Z,2.22
2017-10-22T12:57:29.962Z,2.50
2017-10-22T12:58:31.414Z,2.87
2017-10-22T12:59:32.737Z,4.18
2017-10-22T13:00:34.833Z,5.22
2017-10-22T13:01:36.235Z,3.58
2017-10-22T13:02:38.396Z,3.00
2017-10-22T13:03:40.549Z,3.10
2017-10-22T13:04:42.613Z,3.92
2017-10-22T13:05:46.495Z,2.67
2017-10-22T13:06:48.584Z,3.65
2017-10-22T13:07:50.727Z,2.85
2017-10-22T13:08:52.147Z,2.65
2017-10-22T13:09:53.491Z,3.65
2017-10-22T13:10:55.616Z,3.90
2017-10-22T13:11:56.981Z,3.53
2017-10-22T13:12:58.327Z,3.80
2017-10-22T13:13:59.680Z,2.90
2017-10-22T13:15:01.780Z,2.35
2017-10-22T13:16:03.157Z,3.40
2017-10-22T13:18:11.598Z,6.12
2017-10-22T13:19:13.012Z,5.65
2017-10-22T13:20:15.101Z,6.78
2017-10-22T13:21:16.552Z,5.40
2017-10-22T13:22:17.929Z,5.75
2017-10-22T13:23:19.293Z,4.35
2017-10-22T13:25:49.133Z,2.90
2017-10-22T13:26:50.533Z,2.30
2017-10-22T13:27:51.923Z,3.03
2017-10-22T13:28:53.304Z,3.72
2017-10-22T13:29:54.677Z,3.30
2017-10-22T13:30:56.752Z,3.08
2017-10-22T13:32:04.128Z,2.80
2017-10-22T13:33:05.474Z,3.70
2017-10-22T13:34:06.773Z,3.80
2017-10-22T13:35:08.110Z,4.82
2017-10-22T13:36:09.444Z,3.55
2017-10-22T13:37:10.823Z,2.70
2017-10-22T13:38:12.165Z,2.50
2017-10-22T13:39:13.519Z,3.12
2017-10-22T13:40:14.968Z,3.30
2017-10-22T13:41:16.310Z,3.40
2017-10-22T13:42:17.756Z,2.53
2017-10-22T13:43:19.143Z,2.72
2017-10-22T13:44:21.222Z,2.65
2017-10-22T13:45:22.599Z,1.65